sensor_id;sensor_type;location;lat;lon;timestamp;temperature;humidity
8099;DHT22;4092;47.876;9.372;2023-05-10T00:00:15;11.30;99.90
8099;DHT22;4092;47.876;9.372;2023-05-10T00:02:44;11.30;99.90
8099;DHT22;4092;47.876;9.372;2023-05-10T00:05:11;11.30;99.90
8099;DHT22;4092;47.876;9.372;2023-05-10T00:07:38;11.30;99.90
8099;DHT22;4092;47.876;9.372;2023-05-10T00:10:06;11.30;99.90
8099;DHT22;4092;47.876;9.372;2023-05-10T00:12:33;11.30;99.90
8099;DHT22;4092;47.876;9.372;2023-05-10T00:15:00;11.20;99.90
8099;DHT22;4092;47.876;9.372;2023-05-10T00:17:28;11.20;99.90
8099;DHT22;4092;47.876;9.372;2023-05-10T00:19:57;11.20;99.90
8099;DHT22;4092;47.876;9.372;2023-05-10T00:22:24;11.20;99.90
8099;DHT22;4092;47.876;9.372;2023-05-10T00:24:51;11.20;99.90
8099;DHT22;4092;47.876;9.372;2023-05-10T00:27:18;11.20;99.90
8099;DHT22;4092;47.876;9.372;2023-05-10T00:29:45;11.20;99.90
8099;DHT22;4092;47.876;9.372;2023-05-10T00:32:12;11.20;99.90
8099;DHT22;4092;47.876;9.372;2023-05-10T00:34:39;11.10;99.90
8099;DHT22;4092;47.876;9.372;2023-05-10T00:37:07;11.20;99.90
8099;DHT22;4092;47.876;9.372;2023-05-10T00:39:34;11.10;99.90
8099;DHT22;4092;47.876;9.372;2023-05-10T00:42:01;11.10;99.90
8099;DHT22;4092;47.876;9.372;2023-05-10T00:44:29;11.10;99.90
8099;DHT22;4092;47.876;9.372;2023-05-10T00:46:57;11.10;99.90
8099;DHT22;4092;47.876;9.372;2023-05-10T00:49:24;11.10;99.90
8099;DHT22;4092;47.876;9.372;2023-05-10T00:51:51;11.10;99.90
8099;DHT22;4092;47.876;9.372;2023-05-10T00:54:20;11.10;99.90
8099;DHT22;4092;47.876;9.372;2023-05-10T00:56:47;11.10;99.90
8099;DHT22;4092;47.876;9.372;2023-05-10T00:59:15;11.10;99.90
8099;DHT22;4092;47.876;9.372;2023-05-10T01:01:43;11.10;99.90
8099;DHT22;4092;47.876;9.372;2023-05-10T01:04:11;11.10;99.90
8099;DHT22;4092;47.876;9.372;2023-05-10T01:06:39;11.10;99.90
8099;DHT22;4092;47.876;9.372;2023-05-10T01:09:06;11.00;99.90
8099;DHT22;4092;47.876;9.372;2023-05-10T01:11:35;11.00;99.90
8099;DHT22;4092;47.876;9.372;2023-05-10T01:14:03;11.00;99.90
8099;DHT22;4092;47.876;9.372;2023-05-10T01:16:33;11.00;99.90
8099;DHT22;4092;47.876;9.372;2023-05-10T01:19:04;10.90;99.90
8099;DHT22;4092;47.876;9.372;2023-05-10T01:21:38;11.00;99.90
8099;DHT22;4092;47.876;9.372;2023-05-10T01:27:25;11.00;99.90
8099;DHT22;4092;47.876;9.372;2023-05-10T01:30:13;10.90;99.90
8099;DHT22;4092;47.876;9.372;2023-05-10T01:32:50;10.90;99.90
8099;DHT22;4092;47.876;9.372;2023-05-10T01:35:26;10.90;99.90
8099;DHT22;4092;47.876;9.372;2023-05-10T01:38:00;10.90;99.90
8099;DHT22;4092;47.876;9.372;2023-05-10T01:40:35;10.90;99.90
8099;DHT22;4092;47.876;9.372;2023-05-10T01:43:04;10.90;99.90
8099;DHT22;4092;47.876;9.372;2023-05-10T01:45:37;10.90;99.90
8099;DHT22;4092;47.876;9.372;2023-05-10T01:48:09;10.90;99.90
8099;DHT22;4092;47.876;9.372;2023-05-10T01:50:38;10.90;99.90
8099;DHT22;4092;47.876;9.372;2023-05-10T01:53:08;10.90;99.90
8099;DHT22;4092;47.876;9.372;2023-05-10T01:55:41;10.90;99.90
8099;DHT22;4092;47.876;9.372;2023-05-10T01:58:13;10.90;99.90
8099;DHT22;4092;47.876;9.372;2023-05-10T02:00:43;10.90;99.90
8099;DHT22;4092;47.876;9.372;2023-05-10T02:03:13;10.90;99.90
8099;DHT22;4092;47.876;9.372;2023-05-10T02:05:43;10.90;99.90
8099;DHT22;4092;47.876;9.372;2023-05-10T02:08:11;10.90;99.90
8099;DHT22;4092;47.876;9.372;2023-05-10T02:10:39;10.90;99.90
8099;DHT22;4092;47.876;9.372;2023-05-10T02:13:07;10.80;99.90
8099;DHT22;4092;47.876;9.372;2023-05-10T02:15:35;10.90;99.90
8099;DHT22;4092;47.876;9.372;2023-05-10T02:18:04;10.80;99.90
8099;DHT22;4092;47.876;9.372;2023-05-10T02:20:33;10.90;99.90
8099;DHT22;4092;47.876;9.372;2023-05-10T02:23:02;10.80;99.90
8099;DHT22;4092;47.876;9.372;2023-05-10T02:25:31;10.80;99.90
8099;DHT22;4092;47.876;9.372;2023-05-10T02:28:01;10.80;99.90
8099;DHT22;4092;47.876;9.372;2023-05-10T02:30:28;10.80;99.90
8099;DHT22;4092;47.876;9.372;2023-05-10T02:32:58;10.80;99.90
8099;DHT22;4092;47.876;9.372;2023-05-10T02:35:26;10.80;99.90
8099;DHT22;4092;47.876;9.372;2023-05-10T02:37:56;10.80;99.90
8099;DHT22;4092;47.876;9.372;2023-05-10T02:40:26;10.80;99.90
8099;DHT22;4092;47.876;9.372;2023-05-10T02:42:55;10.80;99.90
8099;DHT22;4092;47.876;9.372;2023-05-10T02:45:26;10.70;99.90
8099;DHT22;4092;47.876;9.372;2023-05-10T02:47:54;10.80;99.90
8099;DHT22;4092;47.876;9.372;2023-05-10T02:50:22;10.80;99.90
8099;DHT22;4092;47.876;9.372;2023-05-10T02:53:05;10.80;99.90
8099;DHT22;4092;47.876;9.372;2023-05-10T02:55:36;10.80;99.90
8099;DHT22;4092;47.876;9.372;2023-05-10T02:58:05;10.80;99.90
8099;DHT22;4092;47.876;9.372;2023-05-10T03:00:32;10.80;99.90
8099;DHT22;4092;47.876;9.372;2023-05-10T03:02:59;10.80;99.90
8099;DHT22;4092;47.876;9.372;2023-05-10T03:05:27;10.80;99.90
8099;DHT22;4092;47.876;9.372;2023-05-10T03:07:55;10.80;99.90
8099;DHT22;4092;47.876;9.372;2023-05-10T03:10:27;10.70;99.90
8099;DHT22;4092;47.876;9.372;2023-05-10T03:13:07;10.70;99.90
8099;DHT22;4092;47.876;9.372;2023-05-10T03:15:43;10.70;99.90
8099;DHT22;4092;47.876;9.372;2023-05-10T03:18:16;10.70;99.90
8099;DHT22;4092;47.876;9.372;2023-05-10T03:20:48;10.60;99.90
8099;DHT22;4092;47.876;9.372;2023-05-10T03:23:22;10.60;99.90
8099;DHT22;4092;47.876;9.372;2023-05-10T03:25:52;10.60;99.90
8099;DHT22;4092;47.876;9.372;2023-05-10T03:28:20;10.60;99.90
8099;DHT22;4092;47.876;9.372;2023-05-10T03:30:47;10.60;99.90
8099;DHT22;4092;47.876;9.372;2023-05-10T03:33:15;10.60;99.90
8099;DHT22;4092;47.876;9.372;2023-05-10T03:35:42;10.50;99.90
8099;DHT22;4092;47.876;9.372;2023-05-10T03:38:11;10.50;99.90
8099;DHT22;4092;47.876;9.372;2023-05-10T03:40:39;10.50;99.90
8099;DHT22;4092;47.876;9.372;2023-05-10T03:43:06;10.60;99.90
8099;DHT22;4092;47.876;9.372;2023-05-10T03:45:33;10.60;99.90
8099;DHT22;4092;47.876;9.372;2023-05-10T03:48:01;10.60;99.90
8099;DHT22;4092;47.876;9.372;2023-05-10T03:50:28;10.60;99.90
8099;DHT22;4092;47.876;9.372;2023-05-10T03:52:55;10.60;99.90
8099;DHT22;4092;47.876;9.372;2023-05-10T03:55:22;10.60;99.90
8099;DHT22;4092;47.876;9.372;2023-05-10T03:57:51;10.60;99.90
8099;DHT22;4092;47.876;9.372;2023-05-10T04:00:19;10.60;99.90
8099;DHT22;4092;47.876;9.372;2023-05-10T04:02:46;10.60;99.90
8099;DHT22;4092;47.876;9.372;2023-05-10T04:05:13;10.60;99.90
8099;DHT22;4092;47.876;9.372;2023-05-10T04:07:40;10.50;99.90
8099;DHT22;4092;47.876;9.372;2023-05-10T04:10:08;10.50;99.90
8099;DHT22;4092;47.876;9.372;2023-05-10T04:12:35;10.50;99.90
8099;DHT22;4092;47.876;9.372;2023-05-10T04:15:04;10.50;99.90
8099;DHT22;4092;47.876;9.372;2023-05-10T04:17:32;10.50;99.90
8099;DHT22;4092;47.876;9.372;2023-05-10T04:19:59;10.50;99.90
8099;DHT22;4092;47.876;9.372;2023-05-10T04:22:26;10.50;99.90
8099;DHT22;4092;47.876;9.372;2023-05-10T04:24:54;10.50;99.90
8099;DHT22;4092;47.876;9.372;2023-05-10T04:27:21;10.50;99.90
8099;DHT22;4092;47.876;9.372;2023-05-10T04:29:51;10.50;99.90
8099;DHT22;4092;47.876;9.372;2023-05-10T04:32:23;10.60;99.90
8099;DHT22;4092;47.876;9.372;2023-05-10T04:34:50;10.60;99.90
8099;DHT22;4092;47.876;9.372;2023-05-10T04:37:17;10.60;99.90
8099;DHT22;4092;47.876;9.372;2023-05-10T04:39:44;10.60;99.90
8099;DHT22;4092;47.876;9.372;2023-05-10T04:42:11;10.70;99.90
8099;DHT22;4092;47.876;9.372;2023-05-10T04:44:40;10.60;99.90
8099;DHT22;4092;47.876;9.372;2023-05-10T04:47:07;10.60;99.90
8099;DHT22;4092;47.876;9.372;2023-05-10T04:49:35;10.60;99.90
8099;DHT22;4092;47.876;9.372;2023-05-10T04:52:02;10.60;99.90
8099;DHT22;4092;47.876;9.372;2023-05-10T04:54:29;10.50;99.90
8099;DHT22;4092;47.876;9.372;2023-05-10T04:56:56;10.50;99.90
8099;DHT22;4092;47.876;9.372;2023-05-10T04:59:23;10.50;99.90
8099;DHT22;4092;47.876;9.372;2023-05-10T05:01:50;10.60;99.90
8099;DHT22;4092;47.876;9.372;2023-05-10T05:04:17;10.50;99.90
8099;DHT22;4092;47.876;9.372;2023-05-10T05:06:46;10.50;99.90
8099;DHT22;4092;47.876;9.372;2023-05-10T05:09:13;10.50;99.90
8099;DHT22;4092;47.876;9.372;2023-05-10T05:11:40;10.40;99.90
8099;DHT22;4092;47.876;9.372;2023-05-10T05:14:07;10.50;99.90
8099;DHT22;4092;47.876;9.372;2023-05-10T05:16:34;10.40;99.90
8099;DHT22;4092;47.876;9.372;2023-05-10T05:19:00;10.50;99.90
8099;DHT22;4092;47.876;9.372;2023-05-10T05:21:28;10.50;99.90
8099;DHT22;4092;47.876;9.372;2023-05-10T05:23:56;10.50;99.90
8099;DHT22;4092;47.876;9.372;2023-05-10T05:26:23;10.50;99.90
8099;DHT22;4092;47.876;9.372;2023-05-10T05:28:50;10.60;99.90
8099;DHT22;4092;47.876;9.372;2023-05-10T05:31:20;10.60;99.90
8099;DHT22;4092;47.876;9.372;2023-05-10T05:33:47;10.60;99.90
8099;DHT22;4092;47.876;9.372;2023-05-10T05:36:14;10.60;99.90
8099;DHT22;4092;47.876;9.372;2023-05-10T05:38:41;10.70;99.90
8099;DHT22;4092;47.876;9.372;2023-05-10T05:41:10;10.70;99.90
8099;DHT22;4092;47.876;9.372;2023-05-10T05:43:37;10.70;99.90
8099;DHT22;4092;47.876;9.372;2023-05-10T05:46:04;10.70;99.90
8099;DHT22;4092;47.876;9.372;2023-05-10T05:48:31;10.70;99.90
8099;DHT22;4092;47.876;9.372;2023-05-10T05:50:58;10.70;99.90
8099;DHT22;4092;47.876;9.372;2023-05-10T05:53:25;10.70;99.90
8099;DHT22;4092;47.876;9.372;2023-05-10T05:55:52;10.70;99.90
8099;DHT22;4092;47.876;9.372;2023-05-10T05:58:21;10.60;99.90
8099;DHT22;4092;47.876;9.372;2023-05-10T06:00:49;10.60;99.90
8099;DHT22;4092;47.876;9.372;2023-05-10T06:03:17;10.70;99.90
8099;DHT22;4092;47.876;9.372;2023-05-10T06:05:44;10.60;99.90
8099;DHT22;4092;47.876;9.372;2023-05-10T06:08:11;10.70;99.90
8099;DHT22;4092;47.876;9.372;2023-05-10T06:10:38;10.70;99.90
8099;DHT22;4092;47.876;9.372;2023-05-10T06:13:05;10.70;99.90
8099;DHT22;4092;47.876;9.372;2023-05-10T06:15:33;10.70;99.90
8099;DHT22;4092;47.876;9.372;2023-05-10T06:18:01;10.70;99.90
8099;DHT22;4092;47.876;9.372;2023-05-10T06:20:28;10.70;99.90
8099;DHT22;4092;47.876;9.372;2023-05-10T06:22:57;10.70;99.90
8099;DHT22;4092;47.876;9.372;2023-05-10T06:25:24;10.70;99.90
8099;DHT22;4092;47.876;9.372;2023-05-10T06:27:50;10.70;99.90
8099;DHT22;4092;47.876;9.372;2023-05-10T06:30:23;10.80;99.90
8099;DHT22;4092;47.876;9.372;2023-05-10T06:32:54;10.70;99.90
8099;DHT22;4092;47.876;9.372;2023-05-10T06:35:21;10.70;99.90
8099;DHT22;4092;47.876;9.372;2023-05-10T06:37:48;10.70;99.90
8099;DHT22;4092;47.876;9.372;2023-05-10T06:40:16;10.60;99.90
8099;DHT22;4092;47.876;9.372;2023-05-10T06:42:43;10.70;99.90
8099;DHT22;4092;47.876;9.372;2023-05-10T06:45:12;10.60;99.90
8099;DHT22;4092;47.876;9.372;2023-05-10T06:47:39;10.70;99.90
8099;DHT22;4092;47.876;9.372;2023-05-10T06:50:09;10.70;99.90
8099;DHT22;4092;47.876;9.372;2023-05-10T06:52:37;10.70;99.90
8099;DHT22;4092;47.876;9.372;2023-05-10T06:55:05;10.60;99.90
8099;DHT22;4092;47.876;9.372;2023-05-10T06:57:32;10.60;99.90
8099;DHT22;4092;47.876;9.372;2023-05-10T06:59:59;10.70;99.90
8099;DHT22;4092;47.876;9.372;2023-05-10T07:02:26;10.70;99.90
8099;DHT22;4092;47.876;9.372;2023-05-10T07:04:53;10.60;99.90
8099;DHT22;4092;47.876;9.372;2023-05-10T07:07:22;10.70;99.90
8099;DHT22;4092;47.876;9.372;2023-05-10T07:09:49;10.70;99.90
8099;DHT22;4092;47.876;9.372;2023-05-10T07:12:16;10.70;99.90
8099;DHT22;4092;47.876;9.372;2023-05-10T07:14:44;10.90;99.90
8099;DHT22;4092;47.876;9.372;2023-05-10T07:17:11;10.80;99.90
8099;DHT22;4092;47.876;9.372;2023-05-10T07:19:38;10.90;99.90
8099;DHT22;4092;47.876;9.372;2023-05-10T07:22:05;10.90;99.90
8099;DHT22;4092;47.876;9.372;2023-05-10T07:24:33;10.80;99.90
8099;DHT22;4092;47.876;9.372;2023-05-10T07:27:00;10.90;99.90
8099;DHT22;4092;47.876;9.372;2023-05-10T07:29:27;10.90;99.90
8099;DHT22;4092;47.876;9.372;2023-05-10T07:31:55;10.90;99.90
8099;DHT22;4092;47.876;9.372;2023-05-10T07:34:22;11.00;99.90
8099;DHT22;4092;47.876;9.372;2023-05-10T07:36:49;10.90;99.90
8099;DHT22;4092;47.876;9.372;2023-05-10T07:39:16;10.90;99.90
8099;DHT22;4092;47.876;9.372;2023-05-10T07:41:44;10.90;99.90
8099;DHT22;4092;47.876;9.372;2023-05-10T07:44:16;10.90;99.90
8099;DHT22;4092;47.876;9.372;2023-05-10T07:46:46;10.90;99.90
8099;DHT22;4092;47.876;9.372;2023-05-10T07:49:13;11.00;99.90
8099;DHT22;4092;47.876;9.372;2023-05-10T07:51:40;11.10;99.90
8099;DHT22;4092;47.876;9.372;2023-05-10T07:54:09;11.10;99.90
8099;DHT22;4092;47.876;9.372;2023-05-10T07:56:38;11.10;99.90
8099;DHT22;4092;47.876;9.372;2023-05-10T07:59:08;11.10;99.90
8099;DHT22;4092;47.876;9.372;2023-05-10T08:01:35;11.10;99.90
8099;DHT22;4092;47.876;9.372;2023-05-10T08:04:03;11.30;99.90
8099;DHT22;4092;47.876;9.372;2023-05-10T08:06:30;11.30;99.90
8099;DHT22;4092;47.876;9.372;2023-05-10T08:08:57;11.30;99.90
8099;DHT22;4092;47.876;9.372;2023-05-10T08:11:24;11.40;99.90
8099;DHT22;4092;47.876;9.372;2023-05-10T08:13:53;11.50;99.90
8099;DHT22;4092;47.876;9.372;2023-05-10T08:16:22;11.50;99.90
8099;DHT22;4092;47.876;9.372;2023-05-10T08:18:50;11.40;99.90
8099;DHT22;4092;47.876;9.372;2023-05-10T08:21:18;11.30;99.90
8099;DHT22;4092;47.876;9.372;2023-05-10T08:23:46;11.30;99.90
8099;DHT22;4092;47.876;9.372;2023-05-10T08:26:13;11.30;99.90
8099;DHT22;4092;47.876;9.372;2023-05-10T08:28:40;11.30;99.90
8099;DHT22;4092;47.876;9.372;2023-05-10T08:31:07;11.30;99.90
8099;DHT22;4092;47.876;9.372;2023-05-10T08:33:38;11.30;99.90
8099;DHT22;4092;47.876;9.372;2023-05-10T08:36:05;11.10;99.90
8099;DHT22;4092;47.876;9.372;2023-05-10T08:38:32;11.10;99.90
8099;DHT22;4092;47.876;9.372;2023-05-10T08:41:00;11.10;99.90
8099;DHT22;4092;47.876;9.372;2023-05-10T08:43:29;11.20;99.90
8099;DHT22;4092;47.876;9.372;2023-05-10T08:45:56;11.30;99.90
8099;DHT22;4092;47.876;9.372;2023-05-10T08:51:52;11.50;99.90
8099;DHT22;4092;47.876;9.372;2023-05-10T08:54:23;11.70;99.90
8099;DHT22;4092;47.876;9.372;2023-05-10T08:56:50;12.00;99.90
8099;DHT22;4092;47.876;9.372;2023-05-10T08:59:19;12.10;99.90
8099;DHT22;4092;47.876;9.372;2023-05-10T09:01:47;12.20;99.90
8099;DHT22;4092;47.876;9.372;2023-05-10T09:04:15;12.20;99.90
8099;DHT22;4092;47.876;9.372;2023-05-10T09:06:43;12.30;99.90
8099;DHT22;4092;47.876;9.372;2023-05-10T09:09:10;12.60;99.90
8099;DHT22;4092;47.876;9.372;2023-05-10T09:11:37;12.50;99.90
8099;DHT22;4092;47.876;9.372;2023-05-10T09:14:05;12.50;99.90
8099;DHT22;4092;47.876;9.372;2023-05-10T09:16:32;12.50;99.90
8099;DHT22;4092;47.876;9.372;2023-05-10T09:18:59;12.60;99.90
8099;DHT22;4092;47.876;9.372;2023-05-10T09:21:26;12.70;99.90
8099;DHT22;4092;47.876;9.372;2023-05-10T09:23:55;12.70;99.90
8099;DHT22;4092;47.876;9.372;2023-05-10T09:26:25;12.50;99.90
8099;DHT22;4092;47.876;9.372;2023-05-10T09:28:53;12.40;99.90
8099;DHT22;4092;47.876;9.372;2023-05-10T09:35:12;12.50;99.90
8099;DHT22;4092;47.876;9.372;2023-05-10T09:38:06;12.50;99.90
8099;DHT22;4092;47.876;9.372;2023-05-10T09:40:52;12.50;99.90
8099;DHT22;4092;47.876;9.372;2023-05-10T09:43:25;12.50;99.90
8099;DHT22;4092;47.876;9.372;2023-05-10T09:45:52;12.60;99.90
8099;DHT22;4092;47.876;9.372;2023-05-10T09:51:20;12.70;99.90
8099;DHT22;4092;47.876;9.372;2023-05-10T09:54:09;12.70;99.90
8099;DHT22;4092;47.876;9.372;2023-05-10T09:56:38;12.70;99.90
8099;DHT22;4092;47.876;9.372;2023-05-10T09:59:07;12.70;99.90
8099;DHT22;4092;47.876;9.372;2023-05-10T10:01:34;12.80;99.90
8099;DHT22;4092;47.876;9.372;2023-05-10T10:04:03;12.80;99.90
8099;DHT22;4092;47.876;9.372;2023-05-10T10:06:35;12.80;99.90
8099;DHT22;4092;47.876;9.372;2023-05-10T10:09:03;12.90;99.90
8099;DHT22;4092;47.876;9.372;2023-05-10T10:11:30;12.70;99.90
8099;DHT22;4092;47.876;9.372;2023-05-10T10:13:59;12.40;99.90
8099;DHT22;4092;47.876;9.372;2023-05-10T10:16:27;12.50;99.90
8099;DHT22;4092;47.876;9.372;2023-05-10T10:18:55;12.50;99.90
8099;DHT22;4092;47.876;9.372;2023-05-10T10:21:23;12.60;99.90
8099;DHT22;4092;47.876;9.372;2023-05-10T10:23:51;12.60;99.90
8099;DHT22;4092;47.876;9.372;2023-05-10T10:26:19;12.40;99.90
8099;DHT22;4092;47.876;9.372;2023-05-10T10:28:51;12.10;99.90
8099;DHT22;4092;47.876;9.372;2023-05-10T10:31:27;11.80;99.90
8099;DHT22;4092;47.876;9.372;2023-05-10T10:34:01;11.60;99.90
8099;DHT22;4092;47.876;9.372;2023-05-10T10:36:30;11.40;99.90
8099;DHT22;4092;47.876;9.372;2023-05-10T10:39:00;11.30;99.90
8099;DHT22;4092;47.876;9.372;2023-05-10T10:41:31;11.10;99.90
8099;DHT22;4092;47.876;9.372;2023-05-10T10:44:28;10.90;99.90
8099;DHT22;4092;47.876;9.372;2023-05-10T10:47:06;10.80;99.90
8099;DHT22;4092;47.876;9.372;2023-05-10T10:49:44;10.70;99.90
8099;DHT22;4092;47.876;9.372;2023-05-10T10:52:25;10.60;99.90
8099;DHT22;4092;47.876;9.372;2023-05-10T10:55:00;10.60;99.90
8099;DHT22;4092;47.876;9.372;2023-05-10T10:57:28;10.60;99.90
8099;DHT22;4092;47.876;9.372;2023-05-10T11:00:26;10.70;99.90
8099;DHT22;4092;47.876;9.372;2023-05-10T11:02:57;10.70;99.90
8099;DHT22;4092;47.876;9.372;2023-05-10T11:05:43;10.60;99.90
8099;DHT22;4092;47.876;9.372;2023-05-10T11:08:27;10.70;99.90
8099;DHT22;4092;47.876;9.372;2023-05-10T11:11:04;10.70;99.90
8099;DHT22;4092;47.876;9.372;2023-05-10T11:13:34;10.80;99.90
8099;DHT22;4092;47.876;9.372;2023-05-10T11:16:18;10.80;99.90
8099;DHT22;4092;47.876;9.372;2023-05-10T11:18:58;10.90;99.90
8099;DHT22;4092;47.876;9.372;2023-05-10T11:21:27;10.80;99.90
8099;DHT22;4092;47.876;9.372;2023-05-10T11:23:55;10.90;99.90
8099;DHT22;4092;47.876;9.372;2023-05-10T11:26:23;10.90;99.90
8099;DHT22;4092;47.876;9.372;2023-05-10T11:28:52;11.00;99.90
8099;DHT22;4092;47.876;9.372;2023-05-10T11:31:21;11.10;99.90
8099;DHT22;4092;47.876;9.372;2023-05-10T11:33:49;11.10;99.90
8099;DHT22;4092;47.876;9.372;2023-05-10T11:36:19;11.10;99.90
8099;DHT22;4092;47.876;9.372;2023-05-10T11:38:48;11.10;99.90
8099;DHT22;4092;47.876;9.372;2023-05-10T11:41:16;11.10;99.90
8099;DHT22;4092;47.876;9.372;2023-05-10T11:43:46;11.30;99.90
8099;DHT22;4092;47.876;9.372;2023-05-10T11:46:14;11.50;99.90
8099;DHT22;4092;47.876;9.372;2023-05-10T11:48:42;11.60;99.90
8099;DHT22;4092;47.876;9.372;2023-05-10T11:51:10;11.80;99.90
8099;DHT22;4092;47.876;9.372;2023-05-10T11:53:42;12.10;99.90
8099;DHT22;4092;47.876;9.372;2023-05-10T11:56:10;12.30;99.90
8099;DHT22;4092;47.876;9.372;2023-05-10T11:58:38;12.30;99.90
8099;DHT22;4092;47.876;9.372;2023-05-10T12:01:07;12.40;99.90
8099;DHT22;4092;47.876;9.372;2023-05-10T12:03:35;12.50;99.90
8099;DHT22;4092;47.876;9.372;2023-05-10T12:06:02;12.60;99.90
8099;DHT22;4092;47.876;9.372;2023-05-10T12:08:30;12.70;99.90
8099;DHT22;4092;47.876;9.372;2023-05-10T12:11:07;12.90;99.90
8099;DHT22;4092;47.876;9.372;2023-05-10T12:13:38;13.10;99.90
8099;DHT22;4092;47.876;9.372;2023-05-10T12:19:27;13.30;99.90
8099;DHT22;4092;47.876;9.372;2023-05-10T12:21:54;13.20;99.90
8099;DHT22;4092;47.876;9.372;2023-05-10T12:24:21;13.20;99.90
8099;DHT22;4092;47.876;9.372;2023-05-10T12:26:52;13.10;99.90
8099;DHT22;4092;47.876;9.372;2023-05-10T12:29:19;13.20;99.90
8099;DHT22;4092;47.876;9.372;2023-05-10T12:31:53;13.10;99.90
8099;DHT22;4092;47.876;9.372;2023-05-10T12:34:25;13.10;99.90
8099;DHT22;4092;47.876;9.372;2023-05-10T12:36:56;13.10;99.90
8099;DHT22;4092;47.876;9.372;2023-05-10T12:39:23;13.10;99.90
8099;DHT22;4092;47.876;9.372;2023-05-10T12:41:55;13.10;99.90
8099;DHT22;4092;47.876;9.372;2023-05-10T12:44:22;12.90;99.90
8099;DHT22;4092;47.876;9.372;2023-05-10T12:46:55;12.90;99.90
8099;DHT22;4092;47.876;9.372;2023-05-10T12:49:22;12.90;99.90
8099;DHT22;4092;47.876;9.372;2023-05-10T12:51:49;12.90;99.90
8099;DHT22;4092;47.876;9.372;2023-05-10T12:54:16;13.00;99.90
8099;DHT22;4092;47.876;9.372;2023-05-10T12:56:43;12.90;99.90
8099;DHT22;4092;47.876;9.372;2023-05-10T12:59:12;12.80;99.90
8099;DHT22;4092;47.876;9.372;2023-05-10T13:01:39;12.80;99.90
8099;DHT22;4092;47.876;9.372;2023-05-10T13:04:06;12.80;99.90
8099;DHT22;4092;47.876;9.372;2023-05-10T13:06:33;12.90;99.90
8099;DHT22;4092;47.876;9.372;2023-05-10T13:26:07;13.30;99.90
8099;DHT22;4092;47.876;9.372;2023-05-10T13:28:34;13.50;99.90
8099;DHT22;4092;47.876;9.372;2023-05-10T13:31:06;13.50;99.90
8099;DHT22;4092;47.876;9.372;2023-05-10T13:33:35;13.60;99.90
8099;DHT22;4092;47.876;9.372;2023-05-10T13:36:06;13.40;99.90
8099;DHT22;4092;47.876;9.372;2023-05-10T13:38:36;13.30;99.90
8099;DHT22;4092;47.876;9.372;2023-05-10T13:41:07;13.20;99.90
8099;DHT22;4092;47.876;9.372;2023-05-10T13:43:34;13.10;99.90
8099;DHT22;4092;47.876;9.372;2023-05-10T13:46:02;13.10;99.90
8099;DHT22;4092;47.876;9.372;2023-05-10T13:48:29;13.30;99.90
8099;DHT22;4092;47.876;9.372;2023-05-10T13:50:56;13.40;99.90
8099;DHT22;4092;47.876;9.372;2023-05-10T13:53:23;13.50;99.90
8099;DHT22;4092;47.876;9.372;2023-05-10T13:55:50;13.60;99.90
8099;DHT22;4092;47.876;9.372;2023-05-10T13:58:19;13.70;99.90
8099;DHT22;4092;47.876;9.372;2023-05-10T14:00:46;13.80;99.90
8099;DHT22;4092;47.876;9.372;2023-05-10T14:03:13;14.00;99.90
8099;DHT22;4092;47.876;9.372;2023-05-10T14:05:40;14.10;99.90
8099;DHT22;4092;47.876;9.372;2023-05-10T14:08:07;14.10;99.90
8099;DHT22;4092;47.876;9.372;2023-05-10T14:10:35;14.20;99.90
8099;DHT22;4092;47.876;9.372;2023-05-10T14:13:02;14.20;99.90
8099;DHT22;4092;47.876;9.372;2023-05-10T14:15:31;14.30;99.90
8099;DHT22;4092;47.876;9.372;2023-05-10T14:17:58;14.30;99.90
8099;DHT22;4092;47.876;9.372;2023-05-10T14:20:25;14.30;99.90
8099;DHT22;4092;47.876;9.372;2023-05-10T14:22:55;14.20;99.90
8099;DHT22;4092;47.876;9.372;2023-05-10T14:25:23;14.10;99.90
8099;DHT22;4092;47.876;9.372;2023-05-10T14:27:50;14.10;99.90
8099;DHT22;4092;47.876;9.372;2023-05-10T14:30:22;14.10;99.90
8099;DHT22;4092;47.876;9.372;2023-05-10T14:32:51;14.00;99.90
8099;DHT22;4092;47.876;9.372;2023-05-10T14:35:19;14.10;99.90
8099;DHT22;4092;47.876;9.372;2023-05-10T14:37:46;14.20;99.90
8099;DHT22;4092;47.876;9.372;2023-05-10T14:40:14;14.20;99.90
8099;DHT22;4092;47.876;9.372;2023-05-10T14:42:42;14.20;99.90
8099;DHT22;4092;47.876;9.372;2023-05-10T14:45:10;14.10;99.90
8099;DHT22;4092;47.876;9.372;2023-05-10T14:47:37;14.10;99.90
8099;DHT22;4092;47.876;9.372;2023-05-10T14:50:07;14.20;99.90
8099;DHT22;4092;47.876;9.372;2023-05-10T14:52:34;14.10;99.90
8099;DHT22;4092;47.876;9.372;2023-05-10T14:55:02;14.20;99.90
8099;DHT22;4092;47.876;9.372;2023-05-10T14:57:30;14.10;99.90
8099;DHT22;4092;47.876;9.372;2023-05-10T14:59:58;14.20;99.90
8099;DHT22;4092;47.876;9.372;2023-05-10T15:02:25;14.20;99.90
8099;DHT22;4092;47.876;9.372;2023-05-10T15:04:52;14.10;99.90
8099;DHT22;4092;47.876;9.372;2023-05-10T15:07:20;14.00;99.90
8099;DHT22;4092;47.876;9.372;2023-05-10T15:09:47;13.80;99.90
8099;DHT22;4092;47.876;9.372;2023-05-10T15:12:15;13.80;99.90
8099;DHT22;4092;47.876;9.372;2023-05-10T15:14:42;13.80;99.90
8099;DHT22;4092;47.876;9.372;2023-05-10T15:17:09;13.70;99.90
8099;DHT22;4092;47.876;9.372;2023-05-10T15:19:38;13.60;99.90
8099;DHT22;4092;47.876;9.372;2023-05-10T15:22:05;13.40;99.90
8099;DHT22;4092;47.876;9.372;2023-05-10T15:24:34;13.40;99.90
8099;DHT22;4092;47.876;9.372;2023-05-10T15:27:01;13.40;99.90
8099;DHT22;4092;47.876;9.372;2023-05-10T15:29:28;13.40;99.90
8099;DHT22;4092;47.876;9.372;2023-05-10T15:31:57;13.30;99.90
8099;DHT22;4092;47.876;9.372;2023-05-10T15:34:24;13.30;99.90
8099;DHT22;4092;47.876;9.372;2023-05-10T15:36:51;13.30;99.90
8099;DHT22;4092;47.876;9.372;2023-05-10T15:39:18;13.30;99.90
8099;DHT22;4092;47.876;9.372;2023-05-10T15:41:46;13.20;99.90
8099;DHT22;4092;47.876;9.372;2023-05-10T15:44:14;13.20;99.90
8099;DHT22;4092;47.876;9.372;2023-05-10T15:46:41;13.10;99.90
8099;DHT22;4092;47.876;9.372;2023-05-10T15:49:08;13.00;99.90
8099;DHT22;4092;47.876;9.372;2023-05-10T15:51:35;12.90;99.90
8099;DHT22;4092;47.876;9.372;2023-05-10T15:54:02;12.80;99.90
8099;DHT22;4092;47.876;9.372;2023-05-10T15:56:32;12.70;99.90
8099;DHT22;4092;47.876;9.372;2023-05-10T15:59:04;12.80;99.90
8099;DHT22;4092;47.876;9.372;2023-05-10T16:01:33;12.80;99.90
8099;DHT22;4092;47.876;9.372;2023-05-10T16:04:10;12.70;99.90
8099;DHT22;4092;47.876;9.372;2023-05-10T16:06:40;12.70;99.90
8099;DHT22;4092;47.876;9.372;2023-05-10T16:09:09;12.60;99.90
8099;DHT22;4092;47.876;9.372;2023-05-10T16:11:54;12.50;99.90
8099;DHT22;4092;47.876;9.372;2023-05-10T16:14:32;12.50;99.90
8099;DHT22;4092;47.876;9.372;2023-05-10T16:16:59;12.50;99.90
8099;DHT22;4092;47.876;9.372;2023-05-10T16:19:31;12.50;99.90
8099;DHT22;4092;47.876;9.372;2023-05-10T16:21:58;12.50;99.90
8099;DHT22;4092;47.876;9.372;2023-05-10T16:24:25;12.40;99.90
8099;DHT22;4092;47.876;9.372;2023-05-10T16:26:58;12.20;99.90
8099;DHT22;4092;47.876;9.372;2023-05-10T16:29:27;12.20;99.90
8099;DHT22;4092;47.876;9.372;2023-05-10T16:31:57;12.00;99.90
8099;DHT22;4092;47.876;9.372;2023-05-10T16:34:28;11.90;99.90
8099;DHT22;4092;47.876;9.372;2023-05-10T16:36:55;12.00;99.90
8099;DHT22;4092;47.876;9.372;2023-05-10T16:39:22;11.90;99.90
8099;DHT22;4092;47.876;9.372;2023-05-10T16:41:51;11.90;99.90
8099;DHT22;4092;47.876;9.372;2023-05-10T16:44:27;11.90;99.90
8099;DHT22;4092;47.876;9.372;2023-05-10T16:46:54;11.90;99.90